createdAt,value
2023-01-10T00:00:23.104Z,68.05
2023-01-10T00:05:24.817Z,68.26
2023-01-10T00:10:26.443Z,68.33
2023-01-10T00:15:28.058Z,68.44
2023-01-10T00:20:30.066Z,68.53
2023-01-10T00:25:34.285Z,68.17
2023-01-10T00:30:38.154Z,68.47
2023-01-10T00:35:39.740Z,68.51
2023-01-10T00:40:41.554Z,68.66
2023-01-10T00:45:47.715Z,68.75
2023-01-10T00:50:49.619Z,68.96
2023-01-10T00:55:51.299Z,68.85
2023-01-10T01:00:53.016Z,68.68
2023-01-10T01:05:54.620Z,68.57
2023-01-10T01:10:56.335Z,68.59
2023-01-10T01:15:59.584Z,68.62
2023-01-10T01:21:03.573Z,68.76
2023-01-10T01:26:06.339Z,68.68
2023-01-10T01:31:09.585Z,68.70
2023-01-10T01:36:12.416Z,68.68
2023-01-10T01:41:32.328Z,68.61
2023-01-10T01:46:38.134Z,68.52
2023-01-10T01:51:39.891Z,68.58
2023-01-10T01:56:44.038Z,68.90
2023-01-10T02:01:50.231Z,68.48
2023-01-10T02:06:53.666Z,68.13
2023-01-10T02:11:56.240Z,67.93
2023-01-10T02:16:57.835Z,68.21
2023-01-10T02:22:24.635Z,68.14
2023-01-10T02:27:31.576Z,67.93
2023-01-10T02:32:56.684Z,67.59
2023-01-10T02:38:20.743Z,67.56
2023-01-10T02:43:31.698Z,67.52
2023-01-10T02:48:33.284Z,67.50
2023-01-10T02:53:39.782Z,67.26
2023-01-10T02:59:02.521Z,66.54
2023-01-10T03:04:28.417Z,66.77
2023-01-10T03:09:39.674Z,66.70
2023-01-10T03:14:43.070Z,66.65
2023-01-10T03:19:51.217Z,66.61
2023-01-10T03:24:56.175Z,66.40
2023-01-10T03:30:10.849Z,66.38
2023-01-10T03:35:13.967Z,66.11
2023-01-10T03:40:23.283Z,66.14
2023-01-10T03:45:31.462Z,65.77
2023-01-10T03:50:34.099Z,66.13
2023-01-10T03:55:37.238Z,65.90
2023-01-10T04:00:39.625Z,65.93
2023-01-10T04:05:41.201Z,65.98
2023-01-10T04:10:42.809Z,65.87
2023-01-10T04:15:44.415Z,66.23
2023-01-10T04:20:46.040Z,66.24
2023-01-10T04:25:48.182Z,66.31
2023-01-10T04:30:49.799Z,66.55
2023-01-10T04:35:52.435Z,66.64
2023-01-10T04:40:57.916Z,67.08
2023-01-10T04:45:59.837Z,66.94
2023-01-10T04:51:01.505Z,66.76
2023-01-10T04:56:07.497Z,66.83
2023-01-10T05:01:21.288Z,66.74
2023-01-10T05:06:24.291Z,66.79
2023-01-10T05:11:25.866Z,66.62
2023-01-10T05:16:28.670Z,66.64
2023-01-10T05:21:30.347Z,66.67
2023-01-10T05:26:31.989Z,66.67
2023-01-10T05:31:33.601Z,66.61
2023-01-10T05:36:35.196Z,66.44
2023-01-10T05:41:36.798Z,66.13
2023-01-10T05:46:38.425Z,66.09
2023-01-10T05:51:40.060Z,65.94
2023-01-10T05:56:41.627Z,65.87
2023-01-10T06:01:43.337Z,66.04
2023-01-10T06:06:44.943Z,66.12
2023-01-10T06:11:46.533Z,66.42
2023-01-10T06:16:48.416Z,66.67
2023-01-10T06:21:50.041Z,66.48
2023-01-10T06:26:51.619Z,66.64
2023-01-10T06:31:53.189Z,66.79
2023-01-10T06:36:54.813Z,67.08
2023-01-10T06:41:56.550Z,66.85
2023-01-10T06:46:58.183Z,66.68
2023-01-10T06:51:59.758Z,66.73
2023-01-10T06:57:01.385Z,66.89
2023-01-10T07:02:03.140Z,67.09
2023-01-10T07:07:04.945Z,67.30
2023-01-10T07:12:06.637Z,67.38
2023-01-10T07:17:08.284Z,67.70
2023-01-10T07:22:09.937Z,67.44
2023-01-10T07:27:11.620Z,67.51
2023-01-10T07:32:13.399Z,67.53
2023-01-10T07:37:15.025Z,67.41
2023-01-10T07:42:16.721Z,67.42
2023-01-10T07:47:18.369Z,67.07
2023-01-10T07:52:20.175Z,66.90
2023-01-10T07:57:21.829Z,67.00
2023-01-10T08:02:23.583Z,66.75
2023-01-10T08:07:25.303Z,67.08
2023-01-10T08:12:26.979Z,66.67
2023-01-10T08:17:28.820Z,66.46
2023-01-10T08:22:30.525Z,66.46
2023-01-10T08:27:32.252Z,66.05
2023-01-10T08:32:33.989Z,65.65
2023-01-10T08:37:35.936Z,64.98
2023-01-10T08:42:37.601Z,64.10
2023-01-10T08:47:39.257Z,64.17
2023-01-10T08:52:40.922Z,63.82
2023-01-10T08:57:42.568Z,63.91
2023-01-10T09:02:44.340Z,64.23
2023-01-10T09:07:46.536Z,64.34
2023-01-10T09:12:57.350Z,64.45
2023-01-10T09:18:01.590Z,64.24
2023-01-10T09:23:11.516Z,63.82
2023-01-10T09:28:13.804Z,63.56
2023-01-10T09:33:15.533Z,63.31
2023-01-10T09:38:19.341Z,63.07
2023-01-10T09:43:26.576Z,62.98
2023-01-10T09:48:43.315Z,62.52
2023-01-10T09:53:48.490Z,62.10
2023-01-10T09:58:50.301Z,61.94
2023-01-10T10:04:05.287Z,61.15
2023-01-10T10:09:13.515Z,61.11
2023-01-10T10:14:44.816Z,60.93
2023-01-10T10:20:04.361Z,60.46
2023-01-10T10:25:19.136Z,61.06
2023-01-10T10:30:30.950Z,59.43
2023-01-10T10:35:40.805Z,59.30
2023-01-10T10:40:44.915Z,59.70
2023-01-10T10:45:52.362Z,59.12
2023-01-10T10:51:00.532Z,57.29
2023-01-10T10:56:04.671Z,57.90
2023-01-10T11:01:06.405Z,57.58
2023-01-10T11:06:10.142Z,56.89
2023-01-10T11:11:18.073Z,56.41
2023-01-10T11:16:31.673Z,55.35
2023-01-10T11:21:33.416Z,56.18
2023-01-10T11:26:40.646Z,55.41
2023-01-10T11:31:42.422Z,55.98
2023-01-10T11:37:25.300Z,54.78
2023-01-10T11:42:29.964Z,55.56
2023-01-10T11:47:37.986Z,55.10
2023-01-10T11:52:46.445Z,55.26
2023-01-10T11:57:57.083Z,54.68
2023-01-10T12:02:58.828Z,54.84
2023-01-10T12:08:08.033Z,54.50
2023-01-10T12:13:17.484Z,54.36
2023-01-10T12:18:19.732Z,54.12
2023-01-10T12:23:25.284Z,53.73
2023-01-10T12:28:30.175Z,53.98
2023-01-10T12:33:35.662Z,53.95
2023-01-10T12:38:58.948Z,53.88
2023-01-10T12:44:11.271Z,53.93
2023-01-10T12:49:27.518Z,52.24
2023-01-10T12:54:30.472Z,53.72
2023-01-10T12:59:39.969Z,53.50
2023-01-10T13:04:47.087Z,53.38
2023-01-10T13:09:49.554Z,53.42
2023-01-10T13:15:30.946Z,53.22
2023-01-10T13:20:42.920Z,53.11
2023-01-10T13:25:55.383Z,53.54
2023-01-10T13:31:01.791Z,53.99
2023-01-10T13:36:19.497Z,53.20
2023-01-10T13:41:40.300Z,53.78
2023-01-10T13:46:51.414Z,53.52
2023-01-10T13:52:12.069Z,53.88
2023-01-10T13:57:53.484Z,53.87
2023-01-10T14:02:55.057Z,54.04
2023-01-10T14:07:58.019Z,54.17
2023-01-10T14:13:16.145Z,53.67
2023-01-10T14:18:21.586Z,54.27
2023-01-10T14:23:34.452Z,54.56
2023-01-10T14:28:36.229Z,54.35
2023-01-10T14:33:40.852Z,54.54
2023-01-10T14:38:45.225Z,54.39
2023-01-10T14:43:54.366Z,54.59
2023-01-10T14:49:00.738Z,54.90
2023-01-10T14:54:13.446Z,53.86
2023-01-10T14:59:24.299Z,54.60
2023-01-10T15:04:32.032Z,55.03
2023-01-10T15:09:33.778Z,55.28
2023-01-10T15:14:37.593Z,55.25
2023-01-10T15:19:40.533Z,55.41
2023-01-10T15:24:42.842Z,55.61
2023-01-10T15:29:46.959Z,55.27
2023-01-10T15:34:54.264Z,55.67
2023-01-10T15:39:55.941Z,55.85
2023-01-10T15:44:58.266Z,55.38
2023-01-10T15:50:00.133Z,55.66
2023-01-10T15:55:01.780Z,56.01
2023-01-10T16:00:04.016Z,55.83
2023-01-10T16:05:09.211Z,55.74
2023-01-10T16:10:24.512Z,55.87
2023-01-10T16:15:28.978Z,55.96
2023-01-10T16:20:41.115Z,56.05
2023-01-10T16:25:49.596Z,56.09
2023-01-10T16:30:51.301Z,56.52
2023-01-10T16:35:54.813Z,56.38
2023-01-10T16:41:22.065Z,56.82
2023-01-10T16:46:24.209Z,56.95
2023-01-10T16:51:32.679Z,56.69
2023-01-10T16:56:34.411Z,56.73
2023-01-10T17:01:43.583Z,56.92
2023-01-10T17:06:45.312Z,56.90
2023-01-10T17:11:54.477Z,56.84
2023-01-10T17:16:56.069Z,56.96
2023-01-10T17:21:57.679Z,57.10
2023-01-10T17:26:59.281Z,57.60
2023-01-10T17:32:01.084Z,57.63
2023-01-10T17:37:03.474Z,57.42
2023-01-10T17:42:06.094Z,57.91
2023-01-10T17:47:07.685Z,58.23
2023-01-10T17:52:09.321Z,58.79
2023-01-10T17:57:12.156Z,58.91
2023-01-10T18:02:17.662Z,59.49
2023-01-10T18:07:19.396Z,60.27
2023-01-10T18:12:21.036Z,60.90
2023-01-10T18:17:22.625Z,61.34
2023-01-10T18:22:42.855Z,61.88
2023-01-10T18:27:50.122Z,62.24
2023-01-10T18:32:53.594Z,62.55
2023-01-10T18:37:56.038Z,63.25
2023-01-10T18:42:58.585Z,64.08
2023-01-10T18:48:02.158Z,63.89
2023-01-10T18:53:05.430Z,63.75
2023-01-10T18:58:07.211Z,63.99
2023-01-10T19:03:10.188Z,64.32
2023-01-10T19:08:14.107Z,64.52
2023-01-10T19:13:15.729Z,64.59
2023-01-10T19:18:17.512Z,65.23
2023-01-10T19:23:19.397Z,65.13
2023-01-10T19:28:21.047Z,64.89
2023-01-10T19:33:22.865Z,64.78
2023-01-10T19:38:24.463Z,64.98
2023-01-10T19:43:26.312Z,65.18
2023-01-10T19:48:27.933Z,65.48
2023-01-10T19:53:29.741Z,65.24
2023-01-10T19:58:32.061Z,65.51
2023-01-10T20:03:33.680Z,65.18
2023-01-10T20:08:35.297Z,65.51
2023-01-10T20:13:39.948Z,66.01
2023-01-10T20:18:42.608Z,65.66
2023-01-10T20:23:44.761Z,65.92
2023-01-10T20:28:48.089Z,65.72
2023-01-10T20:33:50.438Z,65.67
2023-01-10T20:38:53.203Z,65.70
2023-01-10T20:43:56.175Z,65.79
2023-01-10T20:49:00.780Z,65.82
2023-01-10T20:54:06.798Z,66.01
2023-01-10T20:59:08.563Z,66.12
2023-01-10T21:04:10.240Z,66.34
2023-01-10T21:09:13.086Z,66.53
2023-01-10T21:14:14.688Z,66.72
2023-01-10T21:19:16.858Z,66.70
2023-01-10T21:24:19.035Z,66.86
2023-01-10T21:29:20.613Z,66.69
2023-01-10T21:34:22.272Z,66.91
2023-01-10T21:39:23.857Z,66.67
2023-01-10T21:44:25.887Z,67.23
2023-01-10T21:49:27.490Z,67.04
2023-01-10T21:54:29.212Z,66.63
2023-01-10T21:59:30.959Z,66.44
2023-01-10T22:04:32.551Z,66.26
2023-01-10T22:09:34.206Z,66.06
2023-01-10T22:14:36.109Z,66.17
2023-01-10T22:19:38.456Z,66.28
2023-01-10T22:24:43.660Z,66.12
2023-01-10T22:29:46.025Z,66.29
2023-01-10T22:34:47.648Z,66.21
2023-01-10T22:39:49.337Z,65.96
2023-01-10T22:44:50.922Z,65.81
2023-01-10T22:49:52.600Z,65.88
2023-01-10T22:54:54.166Z,65.69
2023-01-10T22:59:55.771Z,65.81
2023-01-10T23:04:57.421Z,65.63
2023-01-10T23:09:59.042Z,65.54
2023-01-10T23:15:00.629Z,66.06
2023-01-10T23:20:02.261Z,66.48
2023-01-10T23:25:04.264Z,66.40
2023-01-10T23:30:07.930Z,66.49
2023-01-10T23:35:09.773Z,66.49
2023-01-10T23:40:12.076Z,66.50
2023-01-10T23:45:13.745Z,66.52
2023-01-10T23:50:15.548Z,66.44
2023-01-10T23:55:17.166Z,66.30
